This is the latest recevied weather packets stored in our database for station/object KB1QVF. If no packets are shown the sender has not sent any weather packets the latest 10 day(s).
| Time | Temp. | Humidity | Pressure | Rain* | Wind** | Luminosity | Snow |
|---|---|---|---|---|---|---|---|
| 1777671236 | 16.11° C | 29% | 1011 hPa | 0 mm | - | 268 W/m² | - |
| 1777670931 | 17.22° C | 31% | 1011.2 hPa | 0 mm | - | 286 W/m² | - |
| 1777670628 | 16.67° C | 29% | 1011.2 hPa | 0 mm | - | 301 W/m² | - |
| 1777670325 | 16.67° C | 29% | 1011 hPa | 0 mm | - | 317 W/m² | - |
| 1777670023 | 16.11° C | 29% | 1011.3 hPa | 0 mm | - | 332 W/m² | - |
| 1777669720 | 16.67° C | 29% | 1011.1 hPa | 0 mm | - | 350 W/m² | - |
| 1777669417 | 16.67° C | 29% | 1011.1 hPa | 0 mm | - | 367 W/m² | - |
| 1777669113 | 16.11° C | 29% | 1010.9 hPa | 0 mm | - | 381 W/m² | - |
| 1777668810 | 16.11° C | 30% | 1011.1 hPa | 0 mm | - | 396 W/m² | - |
| 1777668507 | 16.67° C | 31% | 1011.1 hPa | 0 mm | - | 413 W/m² | - |
| 1777668203 | 16.67° C | 30% | 1011.1 hPa | 0 mm | - | 431 W/m² | - |
| 1777667900 | 16.11° C | 30% | 1010.9 hPa | 0 mm | - | 443 W/m² | - |
| 1777667598 | 16.11° C | 29% | 1010.9 hPa | 0 mm | - | 458 W/m² | - |
| 1777667294 | 16.11° C | 29% | 1010.9 hPa | 0 mm | - | 474 W/m² | - |
| 1777666991 | 16.67° C | 30% | 1010.9 hPa | 0 mm | - | 487 W/m² | - |
| 1777666688 | 16.67° C | 31% | 1011 hPa | 0 mm | - | 502 W/m² | - |
| 1777666384 | 17.22° C | 29% | 1010.8 hPa | 0 mm | - | 519 W/m² | - |
| 1777666081 | 16.67° C | 31% | 1011 hPa | 0 mm | - | 535 W/m² | - |
| 1777665778 | 16.67° C | 30% | 1010.9 hPa | 0 mm | - | 545 W/m² | - |
| 1777665476 | 16.11° C | 33% | 1010.9 hPa | 0 mm | - | 559 W/m² | - |
| 1777665171 | 15.56° C | 33% | 1011.1 hPa | 0 mm | - | 572 W/m² | - |
| 1777664868 | 16.11° C | 33% | 1011 hPa | 0 mm | - | 589 W/m² | - |
| 1777664564 | 16.11° C | 33% | 1010.9 hPa | 0 mm | - | 603 W/m² | - |
| 1777664260 | 16.11° C | 33% | 1011.2 hPa | 0 mm | - | 621 W/m² | - |
| 1777663959 | 15.56° C | 33% | 1011.1 hPa | 0 mm | - | 628 W/m² | - |
* Rain latest hour (hover to see other rain measurements)
** Current wind speed in m/s (hover to see current wind gust speed)